createdAt,value
2022-12-16T00:02:04.963Z,100757.13
2022-12-16T00:04:32.824Z,100763.44
2022-12-16T00:07:00.566Z,100761.00
2022-12-16T00:09:29.728Z,100755.72
2022-12-16T00:11:57.498Z,100752.84
2022-12-16T00:14:27.338Z,100749.19
2022-12-16T00:16:55.135Z,100755.09
2022-12-16T00:19:22.939Z,100755.69
2022-12-16T00:21:50.664Z,100756.72
2022-12-16T00:24:19.815Z,100750.63
2022-12-16T00:26:49.049Z,100756.94
2022-12-16T00:29:17.492Z,100760.56
2022-12-16T00:31:48.030Z,100758.97
2022-12-16T00:34:16.388Z,100756.53
2022-12-16T00:36:45.031Z,100761.22
2022-12-16T00:39:12.839Z,100771.19
2022-12-16T00:41:40.687Z,100774.06
2022-12-16T00:44:10.568Z,100776.91
2022-12-16T00:46:38.313Z,100765.53
2022-12-16T00:49:06.291Z,100764.13
2022-12-16T00:51:34.399Z,100765.94
2022-12-16T00:54:02.363Z,100771.44
2022-12-16T00:56:30.122Z,100761.88
2022-12-16T00:58:57.904Z,100771.66
2022-12-16T01:01:27.204Z,100768.19
2022-12-16T01:03:57.287Z,100769.44
2022-12-16T01:06:25.221Z,100765.97
2022-12-16T01:08:53.038Z,100776.56
2022-12-16T01:11:22.732Z,100776.16
2022-12-16T01:13:52.490Z,100783.50
2022-12-16T01:16:23.232Z,100784.50
2022-12-16T01:18:53.435Z,100780.44
2022-12-16T01:21:23.628Z,100781.47
2022-12-16T01:23:51.612Z,100786.75
2022-12-16T01:26:22.849Z,100784.09
2022-12-16T01:28:50.650Z,100781.47
2022-12-16T01:31:20.511Z,100790.41
2022-12-16T01:33:48.615Z,100800.78
2022-12-16T01:36:18.095Z,100792.84
2022-12-16T01:38:46.327Z,100802.63
2022-12-16T01:41:15.562Z,100809.53
2022-12-16T01:43:44.481Z,100805.88
2022-12-16T01:46:20.361Z,100805.88
2022-12-16T01:48:52.822Z,100807.69
2022-12-16T01:51:28.105Z,100811.19
2022-12-16T01:53:59.181Z,100808.53
2022-12-16T01:56:29.504Z,100817.06
2022-12-16T01:58:58.309Z,100810.75
2022-12-16T02:01:26.541Z,100814.41
2022-12-16T02:03:56.922Z,100813.97
2022-12-16T02:06:26.599Z,100817.63
2022-12-16T02:08:58.078Z,100811.91
2022-12-16T02:11:58.279Z,100817.59
2022-12-16T02:14:40.774Z,100823.28
2022-12-16T02:17:16.046Z,100822.88
2022-12-16T02:20:13.749Z,100820.59
2022-12-16T02:22:53.214Z,100816.75
2022-12-16T02:25:53.166Z,100823.22
2022-12-16T02:28:38.694Z,100821.78
2022-12-16T02:31:22.779Z,100825.63
2022-12-16T02:34:03.220Z,100821.56
2022-12-16T02:36:45.568Z,100817.88
2022-12-16T02:39:16.657Z,100814.78
2022-12-16T02:41:51.696Z,100823.75
2022-12-16T02:44:22.110Z,100813.78
2022-12-16T02:46:55.948Z,100816.00
2022-12-16T02:49:46.037Z,100814.56
2022-12-16T02:52:15.694Z,100814.13
2022-12-16T02:54:45.057Z,100812.88
2022-12-16T02:57:24.748Z,100815.34
2022-12-16T03:00:02.663Z,100820.22
2022-12-16T03:02:41.876Z,100818.16
2022-12-16T03:05:16.180Z,100819.38
2022-12-16T03:07:46.306Z,100821.56
2022-12-16T03:10:18.524Z,100819.72
2022-12-16T03:12:47.447Z,100824.63
2022-12-16T03:15:22.579Z,100829.47
2022-12-16T03:17:53.922Z,100823.16
2022-12-16T03:20:28.897Z,100820.09
2022-12-16T03:23:02.928Z,100822.75
2022-12-16T03:25:35.663Z,100825.19
2022-12-16T03:28:11.616Z,100827.38
2022-12-16T03:30:43.874Z,100826.38
2022-12-16T03:33:20.581Z,100835.94
2022-12-16T03:35:53.248Z,100835.94
2022-12-16T03:38:22.718Z,100834.34
2022-12-16T03:40:52.271Z,100846.38
2022-12-16T03:43:22.876Z,100842.09
2022-12-16T03:45:55.238Z,100848.22
2022-12-16T03:48:27.482Z,100844.16
2022-12-16T03:50:55.623Z,100855.34
2022-12-16T03:53:26.452Z,100849.44
2022-12-16T03:55:54.500Z,100852.69
2022-12-16T03:58:22.708Z,100854.31
2022-12-16T04:00:50.778Z,100858.59
2022-12-16T04:03:18.874Z,100858.00
2022-12-16T04:05:48.108Z,100856.19
2022-12-16T04:08:15.898Z,100860.47
2022-12-16T04:11:01.112Z,100862.06
2022-12-16T04:13:46.543Z,100853.94
2022-12-16T04:16:34.619Z,100854.75
2022-12-16T04:19:20.681Z,100863.28
2022-12-16T04:22:07.664Z,100862.47
2022-12-16T04:24:37.000Z,100866.16
2022-12-16T04:27:22.566Z,100884.94
2022-12-16T04:30:07.896Z,100880.88
2022-12-16T04:32:49.701Z,100897.16
2022-12-16T04:35:34.946Z,100891.09
2022-12-16T04:38:21.642Z,100900.88
2022-12-16T04:41:07.032Z,100909.81
2022-12-16T04:43:52.230Z,100908.81
2022-12-16T04:46:37.765Z,100914.28
2022-12-16T04:49:23.048Z,100912.66
2022-12-16T04:52:08.243Z,100911.03
2022-12-16T04:54:55.280Z,100915.31
2022-12-16T04:57:40.707Z,100914.28
2022-12-16T05:00:26.989Z,100906.22
2022-12-16T05:03:11.270Z,100900.78
2022-12-16T05:05:56.967Z,100908.31
2022-12-16T05:08:41.956Z,100916.84
2022-12-16T05:11:25.032Z,100907.06
2022-12-16T05:14:10.382Z,100918.44
2022-12-16T05:16:55.471Z,100912.34
2022-12-16T05:19:40.737Z,100914.81
2022-12-16T05:22:25.852Z,100918.47
2022-12-16T05:25:11.021Z,100921.31
2022-12-16T05:27:58.357Z,100923.31
2022-12-16T05:30:44.199Z,100928.00
2022-12-16T05:33:29.871Z,100931.88
2022-12-16T05:36:15.416Z,100929.81
2022-12-16T05:39:00.551Z,100933.88
2022-12-16T05:41:45.736Z,100937.94
2022-12-16T05:44:32.456Z,100940.78
2022-12-16T05:47:17.563Z,100942.03
2022-12-16T05:50:02.627Z,100951.38
2022-12-16T05:52:47.825Z,100957.31
2022-12-16T05:55:34.178Z,100960.75
2022-12-16T05:58:19.712Z,100961.78
2022-12-16T06:01:06.500Z,100959.94
2022-12-16T06:03:51.842Z,100973.19
2022-12-16T06:06:37.375Z,100979.50
2022-12-16T06:09:22.475Z,100977.69
2022-12-16T06:12:16.993Z,100977.47
2022-12-16T06:15:02.195Z,100988.88
2022-12-16T06:17:48.662Z,100992.53
2022-12-16T06:20:34.134Z,100991.72
2022-12-16T06:23:25.319Z,100997.22
2022-12-16T06:26:10.670Z,100996.41
2022-12-16T06:28:56.096Z,101002.72
2022-12-16T06:31:41.476Z,100999.25
2022-12-16T06:34:24.580Z,100990.28
2022-12-16T06:37:09.907Z,100995.00
2022-12-16T06:39:55.142Z,100998.66
2022-12-16T06:42:40.376Z,101003.97
2022-12-16T06:45:31.422Z,101006.00
2022-12-16T06:48:19.704Z,101015.78
2022-12-16T06:51:06.566Z,101024.56
2022-12-16T06:53:51.985Z,101030.84
2022-12-16T06:56:37.415Z,101029.84
2022-12-16T06:59:23.255Z,101038.38
2022-12-16T07:02:08.798Z,101033.31
2022-12-16T07:04:54.456Z,101034.94
2022-12-16T07:07:41.102Z,101040.22
2022-12-16T07:10:27.158Z,101045.53
2022-12-16T07:13:15.949Z,101044.72
2022-12-16T07:16:01.046Z,101048.38
2022-12-16T07:18:46.438Z,101047.56
2022-12-16T07:21:31.651Z,101054.06
2022-12-16T07:24:18.294Z,101065.47
2022-12-16T07:27:03.894Z,101080.56
2022-12-16T07:29:49.586Z,101078.13
2022-12-16T07:32:47.806Z,101073.63
2022-12-16T07:35:33.246Z,101080.97
2022-12-16T07:38:18.521Z,101093.19
2022-12-16T07:41:06.591Z,101094.22
2022-12-16T07:43:51.878Z,101105.84
2022-12-16T07:46:37.031Z,101105.84
2022-12-16T07:49:22.363Z,101115.59
2022-12-16T07:52:09.746Z,101112.13
2022-12-16T07:54:58.825Z,101118.84
2022-12-16T07:57:45.625Z,101118.25
2022-12-16T08:00:31.456Z,101119.25
2022-12-16T08:03:17.042Z,101134.75
2022-12-16T08:06:02.295Z,101132.69
2022-12-16T08:08:47.399Z,101133.50
2022-12-16T08:11:32.736Z,101137.19
2022-12-16T08:14:15.843Z,101140.66
2022-12-16T08:17:01.499Z,101149.81
2022-12-16T08:19:46.640Z,101153.88
2022-12-16T08:22:46.411Z,101151.44
2022-12-16T08:25:31.859Z,101152.66
2022-12-16T08:28:22.468Z,101154.91
2022-12-16T08:31:10.263Z,101154.69
2022-12-16T08:33:55.465Z,101156.94
2022-12-16T08:36:41.154Z,101153.47
2022-12-16T08:39:41.025Z,101155.94
2022-12-16T08:42:26.003Z,101164.06
2022-12-16T08:45:11.203Z,101162.44
2022-12-16T08:47:58.072Z,101176.28
2022-12-16T08:50:43.783Z,101175.66
2022-12-16T08:53:29.177Z,101178.53
2022-12-16T08:56:14.192Z,101179.50
2022-12-16T08:59:01.418Z,101179.69
2022-12-16T09:01:49.094Z,101180.94
2022-12-16T09:04:35.802Z,101189.25
2022-12-16T09:07:21.309Z,101191.69
2022-12-16T09:10:06.453Z,101191.50
2022-12-16T09:12:51.622Z,101196.38
2022-12-16T09:15:37.264Z,101192.50
2022-12-16T09:18:22.665Z,101198.59
2022-12-16T09:21:09.801Z,101204.69
2022-12-16T09:23:55.248Z,101214.25
2022-12-16T09:26:40.912Z,101206.28
2022-12-16T09:29:26.494Z,101216.06
2022-12-16T09:32:11.531Z,101216.03
2022-12-16T09:34:56.965Z,101216.00
2022-12-16T09:37:43.443Z,101219.22
2022-12-16T09:40:32.179Z,101227.16
2022-12-16T09:43:25.268Z,101231.03
2022-12-16T09:46:18.853Z,101226.50
2022-12-16T09:49:10.223Z,101223.59
2022-12-16T09:51:57.973Z,101243.56
2022-12-16T09:54:48.074Z,101248.00
2022-12-16T09:57:34.221Z,101245.09
2022-12-16T10:00:26.700Z,101243.88
2022-12-16T10:03:14.481Z,101256.09
2022-12-16T10:06:10.464Z,101249.53
2022-12-16T10:09:06.989Z,101249.75
2022-12-16T10:12:16.290Z,101253.22
2022-12-16T10:15:10.168Z,101260.53
2022-12-16T10:18:02.057Z,101259.25
2022-12-16T10:20:54.659Z,101250.63
2022-12-16T10:23:46.809Z,101261.19
2022-12-16T10:26:39.279Z,101261.97
2022-12-16T10:29:35.462Z,101260.28
2022-12-16T10:32:29.375Z,101262.31
2022-12-16T10:35:15.399Z,101270.44
2022-12-16T10:38:01.754Z,101271.63
2022-12-16T10:40:54.297Z,101275.63
2022-12-16T10:43:49.770Z,101276.41
2022-12-16T10:46:42.600Z,101265.69
2022-12-16T10:49:32.848Z,101269.56
2022-12-16T10:52:23.934Z,101277.09
2022-12-16T10:55:22.263Z,101271.13
2022-12-16T10:58:17.690Z,101273.31
2022-12-16T11:01:11.097Z,101274.53
2022-12-16T11:03:59.388Z,101270.38
2022-12-16T11:06:46.761Z,101270.75
2022-12-16T11:09:41.132Z,101268.25
2022-12-16T11:12:40.410Z,101271.88
2022-12-16T11:15:41.881Z,101268.56
2022-12-16T11:18:33.333Z,101272.41
2022-12-16T11:21:32.351Z,101278.16
2022-12-16T11:24:29.497Z,101268.56
2022-12-16T11:27:24.103Z,101276.31
2022-12-16T11:30:11.920Z,101280.16
2022-12-16T11:33:01.059Z,101279.13
2022-12-16T11:35:49.119Z,101277.03
2022-12-16T11:38:41.826Z,101279.06
2022-12-16T11:41:33.786Z,101285.94
2022-12-16T11:44:20.633Z,101276.00
2022-12-16T11:47:06.473Z,101276.38
2022-12-16T11:49:52.016Z,101270.59
2022-12-16T11:52:39.808Z,101280.00
2022-12-16T11:58:50.594Z,101281.44
2022-12-16T12:01:55.524Z,101275.22
2022-12-16T12:04:41.924Z,101277.56
2022-12-16T12:07:45.273Z,101294.75
2022-12-16T12:11:00.859Z,101293.25
2022-12-16T12:14:08.508Z,101284.44
2022-12-16T12:17:07.553Z,101276.81
2022-12-16T12:20:05.325Z,101287.72
2022-12-16T12:22:54.812Z,101286.44
2022-12-16T12:25:49.301Z,101286.34
2022-12-16T12:28:47.025Z,101295.88
2022-12-16T12:31:44.156Z,101294.03
2022-12-16T12:34:37.575Z,101291.50
2022-12-16T12:37:30.091Z,101295.09
2022-12-16T12:40:37.579Z,101289.44
2022-12-16T12:43:39.772Z,101295.94
2022-12-16T12:46:37.593Z,101293.25
2022-12-16T12:49:29.777Z,101313.13
2022-12-16T12:52:22.298Z,101294.88
2022-12-16T12:55:12.042Z,101304.53
2022-12-16T12:57:59.982Z,101307.06
2022-12-16T13:00:53.637Z,101304.97
2022-12-16T13:03:49.779Z,101295.94
2022-12-16T13:06:36.587Z,101316.59
2022-12-16T13:09:40.862Z,101306.63
2022-12-16T13:12:44.939Z,101300.03
2022-12-16T13:15:46.226Z,101306.53
2022-12-16T13:18:50.635Z,101317.53
2022-12-16T13:22:01.549Z,101319.53
2022-12-16T13:24:55.358Z,101315.34
2022-12-16T13:27:41.603Z,101320.59
2022-12-16T13:30:41.184Z,101322.56
2022-12-16T13:33:41.394Z,101326.97
2022-12-16T13:36:29.462Z,101326.06
2022-12-16T13:39:25.977Z,101334.66
2022-12-16T13:42:18.504Z,101333.16
2022-12-16T13:45:15.362Z,101344.75
2022-12-16T13:48:23.736Z,101348.34
2022-12-16T13:51:18.443Z,101345.31
2022-12-16T13:54:10.277Z,101348.13
2022-12-16T13:56:59.226Z,101349.75
2022-12-16T13:59:47.994Z,101357.50
2022-12-16T14:02:43.803Z,101358.31
2022-12-16T14:05:37.232Z,101363.66
2022-12-16T14:08:24.975Z,101369.94
2022-12-16T14:11:19.258Z,101377.72
2022-12-16T14:14:12.526Z,101379.94
2022-12-16T14:17:09.361Z,101382.38
2022-12-16T14:20:08.631Z,101383.41
2022-12-16T14:23:10.644Z,101381.56
2022-12-16T14:26:13.488Z,101388.06
2022-12-16T14:29:01.138Z,101385.16
2022-12-16T14:31:52.746Z,101376.91
2022-12-16T14:34:40.503Z,101388.41
2022-12-16T14:37:31.962Z,101396.66
2022-12-16T14:40:16.882Z,101395.63
2022-12-16T14:43:02.791Z,101403.63
2022-12-16T14:45:52.432Z,101413.25
2022-12-16T14:48:49.598Z,101414.31
2022-12-16T14:51:46.749Z,101415.13
2022-12-16T14:54:41.947Z,101420.84
2022-12-16T14:57:33.038Z,101422.44
2022-12-16T15:00:20.436Z,101427.78
2022-12-16T15:03:10.361Z,101437.06
2022-12-16T15:05:58.223Z,101444.28
2022-12-16T15:08:45.207Z,101449.63
2022-12-16T15:11:56.232Z,101454.88
2022-12-16T15:14:45.135Z,101463.31
2022-12-16T15:17:40.077Z,101463.78
2022-12-16T15:20:37.816Z,101458.22
2022-12-16T15:23:34.674Z,101471.91
2022-12-16T15:26:20.538Z,101473.09
2022-12-16T15:29:06.285Z,101469.72
2022-12-16T15:31:55.158Z,101478.56
2022-12-16T15:34:49.033Z,101487.38
2022-12-16T15:37:39.507Z,101492.38
2022-12-16T15:40:38.630Z,101493.28
2022-12-16T15:43:24.422Z,101498.63
2022-12-16T15:46:10.557Z,101498.06
2022-12-16T15:48:59.233Z,101499.91
2022-12-16T15:51:59.497Z,101514.31
2022-12-16T15:54:46.807Z,101505.34
2022-12-16T15:57:46.041Z,101508.25
2022-12-16T16:00:41.849Z,101506.88
2022-12-16T16:03:42.272Z,101516.50
2022-12-16T16:06:41.495Z,101516.03
2022-12-16T16:09:31.636Z,101513.75
2022-12-16T16:12:18.399Z,101518.59
2022-12-16T16:15:03.750Z,101526.19
2022-12-16T16:17:48.908Z,101529.75
2022-12-16T16:20:36.193Z,101539.53
2022-12-16T16:23:22.052Z,101537.44
2022-12-16T16:26:07.452Z,101537.44
2022-12-16T16:28:54.243Z,101542.34
2022-12-16T16:31:39.393Z,101545.03
2022-12-16T16:34:24.939Z,101550.94
2022-12-16T16:37:12.756Z,101547.22
2022-12-16T16:39:58.229Z,101550.50
2022-12-16T16:42:43.871Z,101559.09
2022-12-16T16:45:30.911Z,101560.72
2022-12-16T16:48:23.936Z,101568.16
2022-12-16T16:51:09.328Z,101569.78
2022-12-16T16:53:54.842Z,101579.41
2022-12-16T16:56:40.031Z,101578.03
2022-12-16T16:59:25.170Z,101581.28
2022-12-16T17:02:12.044Z,101587.09
2022-12-16T17:04:57.359Z,101587.31
2022-12-16T17:07:42.785Z,101589.88
2022-12-16T17:10:28.452Z,101591.94
2022-12-16T17:13:13.757Z,101597.28
2022-12-16T17:15:59.420Z,101599.38
2022-12-16T17:18:51.972Z,101609.47
2022-12-16T17:21:37.470Z,101617.72
2022-12-16T17:24:22.764Z,101616.88
2022-12-16T17:27:07.796Z,101620.16
2022-12-16T17:29:53.238Z,101625.50
2022-12-16T17:32:38.218Z,101625.03
2022-12-16T17:35:25.502Z,101635.28
2022-12-16T17:38:10.699Z,101643.75
2022-12-16T17:40:55.655Z,101650.59
2022-12-16T17:43:40.848Z,101656.03
2022-12-16T17:46:30.162Z,101651.59
2022-12-16T17:49:22.110Z,101657.38
2022-12-16T17:52:08.435Z,101657.03
2022-12-16T17:54:53.982Z,101664.00
2022-12-16T17:57:38.999Z,101658.66
2022-12-16T18:00:25.240Z,101660.28
2022-12-16T18:03:10.684Z,101660.28
2022-12-16T18:05:55.984Z,101673.41
2022-12-16T18:08:42.480Z,101672.59
2022-12-16T18:11:27.566Z,101678.53
2022-12-16T18:14:12.614Z,101680.16
2022-12-16T18:16:57.755Z,101681.66
2022-12-16T18:19:43.715Z,101680.03
2022-12-16T18:22:43.351Z,101687.00
2022-12-16T18:25:29.920Z,101683.88
2022-12-16T18:28:15.045Z,101686.91
2022-12-16T18:31:08.893Z,101692.03
2022-12-16T18:33:54.291Z,101688.91
2022-12-16T18:36:39.287Z,101688.44
2022-12-16T18:39:24.702Z,101697.28
2022-12-16T18:42:11.053Z,101692.16
2022-12-16T18:45:00.905Z,101705.25
2022-12-16T18:47:46.552Z,101701.03
2022-12-16T18:50:37.459Z,101701.25
2022-12-16T18:53:23.895Z,101703.19
2022-12-16T18:56:18.109Z,101710.25
2022-12-16T18:59:04.960Z,101717.22
2022-12-16T19:01:50.134Z,101711.88
2022-12-16T19:04:35.670Z,101715.94
2022-12-16T19:07:21.054Z,101717.13
2022-12-16T19:10:06.210Z,101720.75
2022-12-16T19:12:51.535Z,101717.41
2022-12-16T19:15:41.198Z,101718.63
2022-12-16T19:18:27.193Z,101722.28
2022-12-16T19:21:12.689Z,101735.06
2022-12-16T19:23:58.012Z,101737.16
2022-12-16T19:26:56.401Z,101746.66
2022-12-16T19:29:42.426Z,101743.63
2022-12-16T19:32:29.036Z,101740.22
2022-12-16T19:35:14.338Z,101748.88
2022-12-16T19:37:59.499Z,101749.91
2022-12-16T19:40:44.388Z,101752.59
2022-12-16T19:43:30.130Z,101752.00
2022-12-16T19:46:15.360Z,101747.47
2022-12-16T19:49:01.985Z,101760.00
2022-12-16T19:51:47.633Z,101764.97
2022-12-16T19:54:32.562Z,101768.44
2022-12-16T19:57:23.226Z,101775.00
2022-12-16T20:00:08.678Z,101773.50
2022-12-16T20:02:56.536Z,101782.34
2022-12-16T20:05:43.232Z,101786.25
2022-12-16T20:08:28.850Z,101781.03
2022-12-16T20:11:14.221Z,101782.31
2022-12-16T20:13:59.403Z,101783.94
2022-12-16T20:16:44.738Z,101790.09
2022-12-16T20:19:29.801Z,101784.34
2022-12-16T20:22:16.744Z,101790.69
2022-12-16T20:25:02.046Z,101792.34
2022-12-16T20:27:47.273Z,101792.19
2022-12-16T20:30:32.814Z,101792.59
2022-12-16T20:33:17.867Z,101787.25
2022-12-16T20:36:13.902Z,101802.84
2022-12-16T20:39:00.561Z,101800.34
2022-12-16T20:41:45.725Z,101803.16
2022-12-16T20:44:36.502Z,101809.69
2022-12-16T20:47:22.207Z,101814.22
2022-12-16T20:50:07.574Z,101818.97
2022-12-16T20:52:52.741Z,101817.66
2022-12-16T20:55:39.961Z,101819.75
2022-12-16T20:58:25.643Z,101819.75
2022-12-16T21:01:11.437Z,101828.16
2022-12-16T21:03:56.823Z,101827.91
2022-12-16T21:06:42.131Z,101839.25
2022-12-16T21:09:27.534Z,101834.13
2022-12-16T21:12:14.404Z,101842.72
2022-12-16T21:14:59.667Z,101846.00
2022-12-16T21:17:44.868Z,101848.28
2022-12-16T21:20:30.179Z,101841.38
2022-12-16T21:23:19.447Z,101854.13
2022-12-16T21:26:04.802Z,101866.25
2022-12-16T21:28:51.832Z,101867.66
2022-12-16T21:31:37.330Z,101872.63
2022-12-16T21:34:23.111Z,101883.53
2022-12-16T21:37:09.336Z,101887.06
2022-12-16T21:39:54.966Z,101891.34
2022-12-16T21:42:44.055Z,101892.56
2022-12-16T21:45:31.608Z,101900.72
2022-12-16T21:48:16.577Z,101894.16
2022-12-16T21:51:02.003Z,101897.44
2022-12-16T21:53:47.600Z,101897.44
2022-12-16T21:56:33.348Z,101903.34
2022-12-16T21:59:33.434Z,101905.63
2022-12-16T22:02:19.769Z,101908.88
2022-12-16T22:05:16.290Z,101914.00
2022-12-16T22:08:01.873Z,101912.94
2022-12-16T22:10:47.341Z,101911.28
2022-12-16T22:13:32.632Z,101917.19
2022-12-16T22:16:18.911Z,101908.78
2022-12-16T22:19:05.381Z,101912.25
2022-12-16T22:21:50.926Z,101918.19
2022-12-16T22:24:36.826Z,101918.69
2022-12-16T22:27:22.101Z,101920.72
2022-12-16T22:30:07.154Z,101925.25
2022-12-16T22:32:48.786Z,101935.31
2022-12-16T22:35:35.794Z,101930.56
2022-12-16T22:38:21.291Z,101928.09
2022-12-16T22:41:13.026Z,101935.31
2022-12-16T22:43:58.411Z,101941.22
2022-12-16T22:46:44.181Z,101941.22
2022-12-16T22:49:29.276Z,101941.22
2022-12-16T22:52:18.057Z,101946.56
2022-12-16T22:55:05.940Z,101947.78
2022-12-16T22:57:53.379Z,101940.38
2022-12-16T23:00:39.569Z,101951.44
2022-12-16T23:03:24.641Z,101947.97
2022-12-16T23:06:09.675Z,101952.69
2022-12-16T23:08:56.817Z,101951.50
2022-12-16T23:11:45.339Z,101955.63
2022-12-16T23:14:34.657Z,101958.06
2022-12-16T23:17:23.506Z,101963.88
2022-12-16T23:20:08.867Z,101965.31
2022-12-16T23:23:03.406Z,101958.09
2022-12-16T23:25:50.053Z,101962.00
2022-12-16T23:28:35.208Z,101961.78
2022-12-16T23:31:20.664Z,101957.69
2022-12-16T23:34:05.786Z,101968.78
2022-12-16T23:36:51.263Z,101970.88
2022-12-16T23:39:38.598Z,101979.69
2022-12-16T23:42:36.784Z,101973.53
2022-12-16T23:45:22.495Z,101970.88
2022-12-16T23:48:07.858Z,101968.78
2022-12-16T23:50:53.300Z,101974.13
2022-12-16T23:53:41.824Z,101979.47
2022-12-16T23:56:27.070Z,101976.59
2022-12-16T23:59:13.527Z,101988.09
